aviador You're here:

KLAF Decoded Metar

LAFAYETTE in IN, USA
Report Time2017-04-29 10:54:00
UTC Time2017-04-29 11:16:59
Flight Rules ifr IFR
Wind020° at 07 kt
W.Decomp.*RWY 05: 6.1 kt HW 3.4 kt LCW
RWY 10: 1.3 kt HW 6.9 kt LCW
W.Rank020° ranks 21
Current wind is below 020° avg. (7.3)
Visibility9656 m
Phenomena:Light Rain
Mist
Clouds:Broken 009 Hf
Overcast 090 Hf
Ceiling900 ft
Temp12°C (ISA -2)
Dew Point12°C (100% RH)
AAT10.1°C
QNH1016 hPa
Density Alt469 ft
Elevation597 ft
Report Wrong Elevation
Raw Report
KLAF 291054Z 02007KT 6SM -RA BR BKN009 OVC090 12/12 A3000 RMK AO2
SLP159 P0002 T01170117=

Extra information for KLAF:More info

Metar Taf Metar & Taf Last 4 Metars F.Rules Stats Wind Profile Meteogram Temp Stats Airport Information Weather charts Add Link Nearby VenuesMetar ALERT Operation Metar Decoded Social comments

AIRNAV info for KLAF